createdAt,value
2023-03-16T00:00:36.383Z,52.90
2023-03-16T00:03:07.499Z,52.90
2023-03-16T00:05:35.787Z,52.90
2023-03-16T00:08:04.091Z,52.90
2023-03-16T00:10:32.437Z,52.90
2023-03-16T00:13:05.170Z,52.90
2023-03-16T00:15:33.600Z,52.90
2023-03-16T00:18:03.466Z,52.90
2023-03-16T00:20:31.644Z,52.90
2023-03-16T00:22:59.908Z,52.90
2023-03-16T00:25:28.135Z,52.80
2023-03-16T00:27:56.394Z,52.80
2023-03-16T00:30:24.601Z,52.80
2023-03-16T00:32:53.922Z,52.80
2023-03-16T00:35:23.512Z,52.80
2023-03-16T00:37:51.736Z,52.70
2023-03-16T00:40:20.061Z,52.70
2023-03-16T00:42:48.269Z,52.70
2023-03-16T00:45:16.602Z,52.60
2023-03-16T00:47:45.799Z,52.60
2023-03-16T00:50:15.006Z,52.60
2023-03-16T00:52:44.674Z,52.50
2023-03-16T00:55:13.694Z,52.50
2023-03-16T00:57:41.904Z,52.50
2023-03-16T01:00:15.624Z,52.50
2023-03-16T01:02:45.411Z,52.50
2023-03-16T01:05:14.472Z,52.40
2023-03-16T01:07:45.352Z,52.40
2023-03-16T01:10:14.231Z,52.40
2023-03-16T01:12:45.528Z,52.40
2023-03-16T01:15:13.877Z,52.40
2023-03-16T01:17:42.045Z,52.30
2023-03-16T01:20:14.442Z,52.30
2023-03-16T01:22:43.991Z,52.30
2023-03-16T01:25:13.514Z,52.30
2023-03-16T01:27:44.078Z,52.30
2023-03-16T01:30:13.478Z,52.20
2023-03-16T01:32:42.670Z,52.20
2023-03-16T01:35:14.182Z,52.20
2023-03-16T01:37:43.930Z,52.20
2023-03-16T01:40:17.775Z,52.20
2023-03-16T01:42:47.427Z,52.20
2023-03-16T01:45:53.859Z,52.20
2023-03-16T01:48:25.309Z,52.20
2023-03-16T01:50:55.165Z,52.10
2023-03-16T01:53:26.835Z,52.10
2023-03-16T01:55:55.683Z,52.10
2023-03-16T01:58:24.591Z,52.10
2023-03-16T02:00:53.100Z,52.10
2023-03-16T02:03:24.177Z,52.00
2023-03-16T02:06:11.096Z,52.00
2023-03-16T02:08:46.265Z,52.00
2023-03-16T02:11:18.072Z,52.00
2023-03-16T02:14:11.577Z,52.00
2023-03-16T02:16:40.548Z,52.00
2023-03-16T02:19:13.134Z,51.90
2023-03-16T02:21:49.056Z,51.90
2023-03-16T02:24:20.017Z,51.90
2023-03-16T02:26:53.921Z,51.90
2023-03-16T02:29:49.988Z,51.90
2023-03-16T02:32:20.260Z,51.90
2023-03-16T02:34:48.610Z,51.80
2023-03-16T02:37:16.960Z,51.90
2023-03-16T02:39:45.194Z,51.90
2023-03-16T02:42:21.888Z,51.90
2023-03-16T02:44:59.294Z,51.80
2023-03-16T02:50:24.885Z,51.80
2023-03-16T02:52:53.139Z,51.70
2023-03-16T02:55:22.510Z,51.70
2023-03-16T02:57:54.689Z,51.70
2023-03-16T03:00:27.505Z,51.70
2023-03-16T03:02:55.996Z,51.70
2023-03-16T03:05:24.182Z,51.70
2023-03-16T03:07:52.706Z,51.70
2023-03-16T03:10:22.047Z,51.70
2023-03-16T03:12:50.393Z,51.70
2023-03-16T03:15:19.448Z,51.70
2023-03-16T03:18:01.550Z,51.60
2023-03-16T03:20:32.437Z,51.60
2023-03-16T03:23:00.702Z,51.60
2023-03-16T03:25:29.028Z,51.60
2023-03-16T03:27:57.312Z,51.60
2023-03-16T03:30:27.889Z,51.60
2023-03-16T03:32:56.635Z,51.60
2023-03-16T03:35:26.481Z,51.60
2023-03-16T03:37:55.648Z,51.60
2023-03-16T03:40:23.913Z,51.60
2023-03-16T03:42:58.588Z,51.50
2023-03-16T03:45:27.291Z,51.50
2023-03-16T03:47:56.245Z,51.50
2023-03-16T03:50:29.256Z,51.50
2023-03-16T03:53:36.965Z,51.40
2023-03-16T03:56:27.597Z,51.40
2023-03-16T03:58:55.832Z,51.40
2023-03-16T04:01:38.980Z,51.40
2023-03-16T04:04:07.724Z,51.40
2023-03-16T04:06:38.705Z,51.40
2023-03-16T04:09:07.259Z,51.40
2023-03-16T04:11:35.660Z,51.30
2023-03-16T04:14:03.912Z,51.30
2023-03-16T04:16:35.744Z,51.30
2023-03-16T04:19:04.392Z,51.30
2023-03-16T04:21:32.947Z,51.30
2023-03-16T04:24:05.170Z,51.30
2023-03-16T04:26:36.469Z,51.30
2023-03-16T04:29:05.721Z,51.30
2023-03-16T04:31:35.343Z,51.30
2023-03-16T04:34:03.948Z,51.30
2023-03-16T04:36:34.281Z,51.30
2023-03-16T04:39:13.816Z,51.30
2023-03-16T04:41:43.588Z,51.20
2023-03-16T04:44:17.534Z,51.20
2023-03-16T04:46:46.033Z,51.20
2023-03-16T04:49:16.928Z,51.20
2023-03-16T04:51:46.715Z,51.20
2023-03-16T04:54:24.873Z,51.20
2023-03-16T04:56:54.444Z,51.10
2023-03-16T04:59:34.214Z,51.20
2023-03-16T05:02:25.866Z,51.10
2023-03-16T05:05:18.287Z,51.10
2023-03-16T05:07:46.938Z,51.10
2023-03-16T05:10:19.207Z,51.10
2023-03-16T05:12:48.760Z,51.10
2023-03-16T05:15:17.039Z,51.10
2023-03-16T05:17:48.160Z,51.10
2023-03-16T05:20:16.852Z,51.10
2023-03-16T05:22:53.405Z,51.10
2023-03-16T05:25:48.327Z,51.00
2023-03-16T05:28:45.410Z,51.10
2023-03-16T05:31:17.019Z,51.10
2023-03-16T05:33:50.834Z,51.10
2023-03-16T05:36:21.622Z,51.10
2023-03-16T05:38:53.778Z,51.10
2023-03-16T05:41:34.039Z,51.10
2023-03-16T05:44:13.592Z,51.10
2023-03-16T05:46:59.181Z,51.00
2023-03-16T05:49:27.722Z,51.00
2023-03-16T05:51:56.437Z,51.00
2023-03-16T05:54:24.842Z,51.00
2023-03-16T05:56:55.781Z,51.00
2023-03-16T05:59:26.064Z,51.00
2023-03-16T06:01:57.916Z,51.00
2023-03-16T06:04:27.384Z,51.00
2023-03-16T06:06:55.773Z,51.10
2023-03-16T06:09:37.439Z,51.30
2023-03-16T06:12:28.791Z,51.30
2023-03-16T06:14:58.734Z,51.40
2023-03-16T06:20:28.141Z,51.70
2023-03-16T06:22:57.956Z,51.90
2023-03-16T06:25:28.654Z,52.10
2023-03-16T06:27:59.127Z,52.20
2023-03-16T06:30:37.824Z,52.20
2023-03-16T06:33:08.330Z,52.30
2023-03-16T06:38:33.562Z,52.30
2023-03-16T06:41:12.761Z,52.30
2023-03-16T06:49:56.519Z,52.40
2023-03-16T06:52:30.600Z,52.40
2023-03-16T06:55:01.160Z,52.40
2023-03-16T06:57:32.721Z,52.40
2023-03-16T07:00:04.993Z,52.50
2023-03-16T07:02:41.154Z,52.50
2023-03-16T07:05:13.121Z,52.40
2023-03-16T07:07:49.967Z,52.40
2023-03-16T07:13:01.645Z,52.30
2023-03-16T07:15:31.443Z,52.20
2023-03-16T07:18:00.115Z,52.20
2023-03-16T07:20:38.415Z,52.10
2023-03-16T07:23:13.546Z,52.10
2023-03-16T07:25:44.607Z,52.10
2023-03-16T07:28:14.135Z,52.10
2023-03-16T07:31:02.477Z,52.10
2023-03-16T07:33:34.771Z,52.10
2023-03-16T07:36:06.627Z,52.10
2023-03-16T07:38:40.353Z,52.10
2023-03-16T07:41:09.330Z,52.10
2023-03-16T07:43:38.617Z,52.10
2023-03-16T07:46:17.259Z,52.10
2023-03-16T07:48:51.562Z,52.10
2023-03-16T07:51:22.029Z,52.10
2023-03-16T07:53:51.349Z,52.00
2023-03-16T07:56:25.367Z,52.00
2023-03-16T07:58:57.438Z,52.00
2023-03-16T08:01:27.251Z,52.00
2023-03-16T08:03:55.565Z,52.00
2023-03-16T08:06:25.453Z,51.90
2023-03-16T08:08:53.683Z,51.90
2023-03-16T08:11:33.107Z,51.80
2023-03-16T08:14:05.428Z,51.80
2023-03-16T08:16:58.663Z,51.80
2023-03-16T08:19:28.494Z,51.80
2023-03-16T08:22:02.111Z,51.80
2023-03-16T08:24:38.395Z,51.80
2023-03-16T08:27:08.427Z,51.80
2023-03-16T08:29:38.977Z,51.80
2023-03-16T08:32:10.452Z,51.80
2023-03-16T08:34:43.713Z,51.70
2023-03-16T08:37:12.448Z,51.60
2023-03-16T08:39:42.038Z,51.50
2023-03-16T08:42:15.264Z,51.40
2023-03-16T08:44:47.814Z,51.40
2023-03-16T08:47:18.138Z,51.30
2023-03-16T08:49:46.878Z,51.30
2023-03-16T08:52:16.993Z,51.30
2023-03-16T08:54:59.736Z,51.20
2023-03-16T08:57:29.860Z,51.20
2023-03-16T08:59:58.009Z,51.20
2023-03-16T09:02:27.877Z,51.20
2023-03-16T09:04:56.334Z,51.10
2023-03-16T09:07:24.911Z,51.00
2023-03-16T09:09:53.093Z,51.10
2023-03-16T09:12:22.380Z,51.00
2023-03-16T09:14:50.559Z,51.10
2023-03-16T09:17:18.755Z,51.00
2023-03-16T09:19:51.656Z,51.00
2023-03-16T09:22:20.676Z,51.00
2023-03-16T09:24:49.608Z,51.00
2023-03-16T09:27:19.834Z,51.00
2023-03-16T09:29:48.859Z,51.00
2023-03-16T09:32:17.216Z,50.90
2023-03-16T09:34:45.881Z,50.90
2023-03-16T09:37:16.384Z,50.90
2023-03-16T09:39:45.667Z,50.80
2023-03-16T09:42:19.754Z,50.90
2023-03-16T09:44:58.554Z,51.00
2023-03-16T09:47:30.700Z,50.90
2023-03-16T09:50:01.936Z,50.90
2023-03-16T09:52:40.553Z,50.90
2023-03-16T09:55:46.671Z,50.80
2023-03-16T09:58:52.686Z,50.70
2023-03-16T10:02:03.558Z,50.70
2023-03-16T10:04:59.432Z,50.60
2023-03-16T10:07:43.310Z,50.60
2023-03-16T10:13:30.248Z,50.40
2023-03-16T10:16:02.879Z,50.40
2023-03-16T10:18:35.604Z,50.40
2023-03-16T10:21:04.378Z,50.50
2023-03-16T10:23:36.598Z,50.30
2023-03-16T10:26:13.466Z,50.30
2023-03-16T10:28:43.038Z,50.30
2023-03-16T10:31:13.123Z,50.30
2023-03-16T10:33:41.662Z,50.20
2023-03-16T10:36:17.066Z,50.30
2023-03-16T10:38:49.392Z,50.20
2023-03-16T10:41:28.571Z,50.20
2023-03-16T10:43:59.798Z,50.10
2023-03-16T10:46:29.591Z,50.10
2023-03-16T10:49:01.321Z,50.10
2023-03-16T10:51:32.042Z,50.10
2023-03-16T10:54:11.337Z,50.10
2023-03-16T10:56:40.383Z,49.90
2023-03-16T10:59:32.076Z,49.70
2023-03-16T11:02:01.356Z,49.70
2023-03-16T11:04:32.865Z,49.60
2023-03-16T11:07:01.013Z,49.50
2023-03-16T11:09:35.360Z,49.30
2023-03-16T11:12:15.458Z,49.10
2023-03-16T11:14:46.723Z,49.00
2023-03-16T11:17:18.988Z,48.80
2023-03-16T11:19:53.082Z,48.60
2023-03-16T11:22:24.202Z,48.50
2023-03-16T11:24:58.268Z,48.40
2023-03-16T11:27:32.286Z,48.40
2023-03-16T11:30:05.975Z,48.40
2023-03-16T11:32:37.990Z,48.20
2023-03-16T11:35:16.408Z,48.20
2023-03-16T11:38:07.043Z,48.20
2023-03-16T11:40:47.381Z,48.20
2023-03-16T11:43:37.001Z,48.20
2023-03-16T11:46:12.512Z,48.20
2023-03-16T11:48:44.334Z,48.10
2023-03-16T11:51:25.551Z,48.10
2023-03-16T11:54:04.366Z,48.00
2023-03-16T11:56:37.131Z,48.00
2023-03-16T11:59:32.082Z,48.00
2023-03-16T12:02:16.730Z,48.00
2023-03-16T12:04:57.656Z,47.90
2023-03-16T12:07:40.987Z,47.70
2023-03-16T12:10:23.943Z,47.40
2023-03-16T12:16:16.593Z,47.10
2023-03-16T12:18:49.038Z,47.00
2023-03-16T12:21:22.227Z,46.90
2023-03-16T12:23:53.436Z,46.80
2023-03-16T12:26:25.557Z,46.80
2023-03-16T12:28:57.046Z,46.70
2023-03-16T12:31:31.941Z,46.70
2023-03-16T12:34:10.256Z,46.70
2023-03-16T12:36:58.960Z,46.60
2023-03-16T12:39:43.107Z,46.50
2023-03-16T12:42:25.947Z,46.60
2023-03-16T12:44:58.497Z,46.50
2023-03-16T12:47:33.736Z,46.40
2023-03-16T12:50:07.232Z,46.50
2023-03-16T12:52:44.646Z,46.60
2023-03-16T12:55:15.963Z,46.70
2023-03-16T12:57:46.178Z,46.80
2023-03-16T13:00:17.539Z,46.90
2023-03-16T13:02:51.054Z,47.00
2023-03-16T13:05:30.070Z,47.00
2023-03-16T13:08:09.003Z,47.10
2023-03-16T13:10:37.598Z,47.10
2023-03-16T13:13:11.702Z,47.10
2023-03-16T13:15:41.593Z,47.20
2023-03-16T13:18:25.210Z,47.20
2023-03-16T13:20:58.440Z,47.30
2023-03-16T13:23:28.928Z,47.30
2023-03-16T13:26:04.390Z,47.20
2023-03-16T13:28:34.641Z,47.30
2023-03-16T13:31:04.939Z,47.30
2023-03-16T13:33:36.876Z,47.30
2023-03-16T13:36:07.354Z,47.40
2023-03-16T13:38:36.191Z,47.50
2023-03-16T13:41:10.052Z,47.50
2023-03-16T13:43:42.659Z,47.60
2023-03-16T13:46:19.423Z,47.70
2023-03-16T13:48:48.782Z,47.80
2023-03-16T13:51:20.855Z,47.90
2023-03-16T13:53:50.284Z,47.90
2023-03-16T13:56:22.701Z,47.90
2023-03-16T13:58:52.759Z,48.00
2023-03-16T14:01:26.790Z,48.00
2023-03-16T14:03:58.889Z,48.10
2023-03-16T14:06:29.201Z,48.10
2023-03-16T14:09:01.254Z,48.20
2023-03-16T14:11:29.727Z,48.30
2023-03-16T14:13:59.112Z,48.30
2023-03-16T14:16:32.142Z,48.40
2023-03-16T14:19:03.945Z,48.50
2023-03-16T14:21:35.161Z,48.60
2023-03-16T14:24:05.570Z,48.70
2023-03-16T14:26:41.816Z,48.70
2023-03-16T14:29:24.784Z,48.80
2023-03-16T14:31:55.486Z,48.90
2023-03-16T14:34:30.413Z,49.00
2023-03-16T14:37:09.373Z,49.00
2023-03-16T14:39:37.800Z,49.10
2023-03-16T14:42:07.936Z,49.10
2023-03-16T14:44:39.407Z,49.20
2023-03-16T14:47:09.729Z,49.20
2023-03-16T14:49:41.536Z,49.30
2023-03-16T14:52:22.312Z,49.40
2023-03-16T14:54:51.332Z,49.40
2023-03-16T14:57:20.076Z,49.40
2023-03-16T14:59:48.321Z,49.40
2023-03-16T15:02:21.258Z,48.70
2023-03-16T15:04:50.247Z,48.50
2023-03-16T15:07:30.892Z,48.80
2023-03-16T15:10:06.196Z,49.20
2023-03-16T15:12:35.577Z,49.30
2023-03-16T15:15:16.203Z,49.60
2023-03-16T15:17:46.438Z,49.70
2023-03-16T15:20:16.337Z,49.80
2023-03-16T15:22:46.274Z,49.90
2023-03-16T15:25:35.755Z,50.00
2023-03-16T15:28:11.477Z,50.10
2023-03-16T15:30:40.378Z,50.20
2023-03-16T15:33:10.106Z,50.30
2023-03-16T15:35:39.726Z,50.30
2023-03-16T15:38:14.049Z,50.40
2023-03-16T15:40:44.119Z,50.40
2023-03-16T15:43:13.788Z,50.40
2023-03-16T15:45:41.950Z,50.40
2023-03-16T15:48:12.511Z,50.30
2023-03-16T15:50:43.142Z,50.40
2023-03-16T15:53:29.628Z,50.40
2023-03-16T15:56:02.908Z,50.50
2023-03-16T15:58:32.598Z,50.50
2023-03-16T16:01:02.716Z,50.60
2023-03-16T16:03:32.287Z,50.50
2023-03-16T16:06:00.386Z,50.60
2023-03-16T16:08:28.527Z,50.50
2023-03-16T16:10:57.466Z,49.90
2023-03-16T16:13:43.075Z,49.50
2023-03-16T16:16:14.481Z,49.20
2023-03-16T16:18:44.832Z,49.00
2023-03-16T16:21:18.049Z,48.80
2023-03-16T16:23:46.548Z,48.60
2023-03-16T16:26:29.551Z,48.40
2023-03-16T16:28:59.427Z,48.30
2023-03-16T16:31:30.169Z,48.20
2023-03-16T16:35:03.857Z,48.20
2023-03-16T16:37:32.884Z,48.10
2023-03-16T16:40:01.524Z,48.10
2023-03-16T16:42:29.688Z,47.90
2023-03-16T16:44:57.992Z,48.00
2023-03-16T16:47:27.664Z,48.20
2023-03-16T16:59:28.588Z,48.60
2023-03-16T17:02:12.125Z,48.80
2023-03-16T17:04:48.824Z,48.80
2023-03-16T17:07:18.708Z,48.90
2023-03-16T17:09:48.549Z,49.10
2023-03-16T17:12:21.916Z,49.10
2023-03-16T17:17:40.525Z,49.30
2023-03-16T17:20:35.927Z,49.30
2023-03-16T17:23:43.747Z,49.40
2023-03-16T17:32:11.904Z,49.50
2023-03-16T17:34:42.254Z,49.60
2023-03-16T17:40:08.501Z,49.70
2023-03-16T17:42:52.728Z,49.70
2023-03-16T17:46:05.210Z,49.80
2023-03-16T17:48:36.334Z,49.80
2023-03-16T17:51:04.756Z,49.90
2023-03-16T17:54:00.064Z,49.90
2023-03-16T17:56:40.507Z,50.00
2023-03-16T17:59:18.232Z,50.00
2023-03-16T18:02:05.944Z,50.00
2023-03-16T18:07:27.975Z,50.00
2023-03-16T18:13:40.272Z,50.00
2023-03-16T18:16:09.468Z,50.00
2023-03-16T18:18:45.557Z,50.10
2023-03-16T18:21:25.674Z,50.10
2023-03-16T18:43:27.108Z,50.30
2023-03-16T18:45:59.698Z,50.30
2023-03-16T18:48:38.758Z,50.30
2023-03-16T18:51:14.434Z,50.30
2023-03-16T18:53:57.085Z,50.30
2023-03-16T19:00:48.921Z,50.40
2023-03-16T19:07:00.802Z,50.40
2023-03-16T19:09:32.672Z,50.40
2023-03-16T19:12:15.526Z,50.50
2023-03-16T19:14:47.099Z,50.60
2023-03-16T19:17:21.308Z,50.60
2023-03-16T19:19:51.566Z,50.60
2023-03-16T19:22:29.544Z,50.60
2023-03-16T19:24:58.020Z,50.60
2023-03-16T19:27:30.202Z,50.60
2023-03-16T19:29:58.415Z,50.50
2023-03-16T19:32:26.632Z,50.50
2023-03-16T19:34:56.286Z,50.50
2023-03-16T19:37:26.679Z,50.50
2023-03-16T19:39:54.848Z,50.50
2023-03-16T19:42:28.570Z,50.50
2023-03-16T19:44:57.457Z,50.50
2023-03-16T19:47:29.622Z,50.40
2023-03-16T19:49:59.732Z,50.50
2023-03-16T19:52:31.274Z,50.50
2023-03-16T19:55:02.175Z,50.60
2023-03-16T19:57:31.561Z,50.60
2023-03-16T19:59:59.788Z,50.60
2023-03-16T20:02:30.759Z,50.60
2023-03-16T20:05:00.264Z,50.70
2023-03-16T20:07:28.495Z,50.70
2023-03-16T20:09:57.273Z,50.70
2023-03-16T20:12:27.931Z,50.70
2023-03-16T20:14:57.580Z,50.70
2023-03-16T20:17:28.290Z,50.70
2023-03-16T20:19:57.695Z,50.80
2023-03-16T20:22:29.021Z,50.80
2023-03-16T20:24:58.137Z,50.80
2023-03-16T20:27:28.553Z,50.80
2023-03-16T20:29:56.918Z,50.80
2023-03-16T20:32:27.043Z,50.80
2023-03-16T20:34:57.021Z,50.80
2023-03-16T20:37:28.221Z,50.80
2023-03-16T20:39:59.040Z,50.90
2023-03-16T20:42:31.510Z,50.90
2023-03-16T20:44:59.875Z,50.90
2023-03-16T20:47:28.711Z,50.90
2023-03-16T20:49:58.260Z,50.90
2023-03-16T20:52:31.016Z,50.90
2023-03-16T20:54:59.558Z,50.90
2023-03-16T20:57:29.637Z,50.90
2023-03-16T20:59:58.046Z,50.90
2023-03-16T21:02:29.099Z,50.90
2023-03-16T21:04:58.329Z,50.90
2023-03-16T21:07:28.226Z,50.90
2023-03-16T21:09:56.596Z,50.90
2023-03-16T21:12:27.854Z,50.90
2023-03-16T21:14:57.346Z,50.90
2023-03-16T21:17:30.806Z,50.90
2023-03-16T21:19:59.638Z,50.90
2023-03-16T21:22:31.364Z,50.90
2023-03-16T21:24:59.931Z,50.90
2023-03-16T21:27:30.213Z,50.90
2023-03-16T21:30:02.062Z,50.90
2023-03-16T21:32:34.071Z,50.70
2023-03-16T21:35:04.264Z,50.60
2023-03-16T21:37:37.324Z,50.60
2023-03-16T21:40:22.979Z,50.60
2023-03-16T21:42:51.682Z,50.60
2023-03-16T21:45:20.299Z,50.50
2023-03-16T21:47:56.401Z,50.50
2023-03-16T21:50:31.663Z,50.50
2023-03-16T21:53:02.863Z,50.60
2023-03-16T21:55:32.900Z,50.60
2023-03-16T21:58:02.780Z,50.60
2023-03-16T22:00:36.875Z,50.60
2023-03-16T22:03:08.482Z,50.60
2023-03-16T22:05:38.288Z,50.60
2023-03-16T22:08:16.030Z,50.60
2023-03-16T22:10:44.490Z,50.60
2023-03-16T22:13:13.276Z,50.60
2023-03-16T22:15:44.976Z,50.60
2023-03-16T22:21:27.328Z,50.60
2023-03-16T22:23:59.298Z,50.60
2023-03-16T22:26:29.317Z,50.60
2023-03-16T22:29:02.535Z,50.60
2023-03-16T22:31:35.657Z,50.60
2023-03-16T22:34:07.648Z,50.70
2023-03-16T22:36:40.216Z,50.70
2023-03-16T22:39:30.793Z,50.70
2023-03-16T22:41:59.110Z,50.70
2023-03-16T22:44:27.626Z,50.70
2023-03-16T22:47:03.878Z,50.70
2023-03-16T22:49:35.491Z,50.70
2023-03-16T22:52:03.804Z,50.70
2023-03-16T22:54:35.474Z,50.70
2023-03-16T22:57:15.673Z,50.70
2023-03-16T22:59:44.751Z,50.70
2023-03-16T23:02:16.208Z,50.70
2023-03-16T23:04:46.133Z,50.70
2023-03-16T23:07:16.614Z,50.70
2023-03-16T23:09:53.270Z,50.70
2023-03-16T23:12:23.020Z,50.60
2023-03-16T23:14:51.935Z,50.70
2023-03-16T23:17:22.500Z,50.70
2023-03-16T23:19:51.893Z,50.60
2023-03-16T23:22:21.487Z,50.60
2023-03-16T23:24:49.924Z,50.60
2023-03-16T23:27:24.782Z,50.60
2023-03-16T23:29:54.129Z,50.60
2023-03-16T23:32:22.369Z,50.60
2023-03-16T23:34:50.551Z,50.60
2023-03-16T23:37:18.759Z,50.60
2023-03-16T23:39:47.104Z,50.60
2023-03-16T23:42:17.365Z,50.60
2023-03-16T23:44:49.251Z,50.60
2023-03-16T23:47:17.590Z,50.60
2023-03-16T23:49:46.650Z,50.60
2023-03-16T23:52:16.798Z,50.50
2023-03-16T23:54:44.997Z,50.50
2023-03-16T23:57:13.546Z,50.50
2023-03-16T23:59:42.264Z,50.50
